Time;durP1;ratioP1;P1;durP2;ratioP2;P2;SDS_P1;SDS_P2;PMS_P1;PMS_P2;Temp;Humidity;BMP_temperature;BMP_pressure;BME280_temperature;BME280_humidity;BME280_pressure;Samples;Min_cycle;Max_cycle;Signal;HPM_P1;HPM_P2
2022/11/25 00:00:37;;;;;;;;;;;;;;;;;;5074893;28;20537;-85
2022/11/25 00:03:04;;;;;;;6.53;2.55;;;;;;;;;;5075570;28;19920;-86
2022/11/25 00:05:37;;;;;;;3.17;2.38;;;;;;;;;;5091263;28;20415;-86
2022/11/25 00:08:10;;;;;;;4.95;2.88;;;;;;;;;;5090917;28;20052;-86
2022/11/25 00:10:38;;;;;;;;;;;;;;;;;;5077071;28;20044;-86
2022/11/25 00:13:12;;;;;;;7.65;2.95;;;;;;;;;;5115609;28;20284;-86
2022/11/25 00:15:44;;;;;;;3.10;2.25;;;;;;;;;;5069032;28;20051;-86
2022/11/25 00:18:17;;;;;;;5.63;2.95;;;;;;;;;;5077456;28;20385;-85
2022/11/25 00:20:45;;;;;;;;;;;;;;;;;;5057948;28;20505;-86
2022/11/25 00:23:12;;;;;;;10.55;3.05;;;;;;;;;;5067332;28;19925;-86
2022/11/25 00:25:45;;;;;;;3.72;2.78;;;;;;;;;;5061720;28;20045;-86
2022/11/25 00:28:19;;;;;;;4.85;2.42;;;;;;;;;;5076794;28;20496;-85
2022/11/25 00:30:52;;;;;;;7.65;3.20;;;;;;;;;;5090940;28;20052;-86
2022/11/25 00:33:25;;;;;;;5.40;3.25;;;;;;;;;;5063051;28;20496;-86
2022/11/25 00:35:52;;;;;;;;;;;;;;;;;;5071683;28;20053;-86
2022/11/25 00:38:25;;;;;;;4.15;2.63;;;;;;;;;;5071403;28;19927;-86
2022/11/25 00:46:26;;;;;;;7.53;3.13;;;;;;;;;;5062790;28;20519;-85
2022/11/25 00:48:54;;;;;;;;;;;;;;;;;;5074031;28;20048;-86
2022/11/25 00:51:27;;;;;;;3.70;2.70;;;;;;;;;;5065543;28;20318;-86
2022/11/25 00:53:54;;;;;;;5.90;3.05;;;;;;;;;;5086464;28;20047;-85
2022/11/25 00:56:29;;;;;;;5.13;3.08;;;;;;;;;;5071640;28;20063;-86
2022/11/25 00:59:03;;;;;;;9.60;2.97;;;;;;;;;;5070353;28;20060;-86
2022/11/25 01:01:38;;;;;;;4.97;2.80;;;;;;;;;;5122152;27;20059;-86
2022/11/25 01:04:05;;;;;;;;;;;;;;;;;;5094058;28;20055;-86
2022/11/25 01:06:33;;;;;;;4.28;2.97;;;;;;;;;;5068659;28;20257;-85
2022/11/25 01:09:01;;;;;;;4.47;3.28;;;;;;;;;;5072429;28;20049;-86
2022/11/25 01:11:29;;;;;;;6.25;2.97;;;;;;;;;;5057342;28;20060;-86
2022/11/25 01:14:03;;;;;;;4.75;3.00;;;;;;;;;;5073194;28;20043;-86
2022/11/25 01:16:36;;;;;;;3.95;3.05;;;;;;;;;;5094783;28;20040;-86
2022/11/25 01:19:07;;;;;;;4.80;3.30;;;;;;;;;;5071099;28;20438;-86
2022/11/25 01:21:40;;;;;;;7.82;3.55;;;;;;;;;;5066262;28;20052;-86
2022/11/25 01:24:14;;;;;;;5.32;2.75;;;;;;;;;;5074094;28;20059;-86
2022/11/25 01:26:46;;;;;;;7.47;3.25;;;;;;;;;;5056367;28;20079;-86
2022/11/25 01:29:23;;;;;;;5.22;3.28;;;;;;;;;;5088845;28;20048;-86
2022/11/25 01:31:54;;;;;;;6.97;3.33;;;;;;;;;;5072719;28;20503;-85
2022/11/25 01:34:30;;;;;;;5.40;3.55;;;;;;;;;;5087722;28;20516;-86
2022/11/25 01:36:58;;;;;;;6.93;3.15;;;;;;;;;;5060307;28;20048;-85
2022/11/25 01:39:31;;;;;;;10.88;3.28;;;;;;;;;;5088062;28;20045;-86
2022/11/25 01:41:59;;;;;;;4.10;2.72;;;;;;;;;;5101545;28;20056;-86
2022/11/25 01:44:29;;;;;;;6.95;3.53;;;;;;;;;;5058881;28;20052;-86
2022/11/25 01:47:03;;;;;;;4.35;3.00;;;;;;;;;;5064105;28;20058;-86
2022/11/25 01:49:36;;;;;;;4.78;3.08;;;;;;;;;;5113753;28;20048;-86
2022/11/25 01:52:14;;;;;;;4.80;3.35;;;;;;;;;;5093501;28;20040;-86
2022/11/25 01:54:43;;;;;;;4.32;2.95;;;;;;;;;;5058667;28;20044;-86
2022/11/25 01:57:20;;;;;;;5.03;3.00;;;;;;;;;;5075145;28;20055;-86
2022/11/25 01:59:50;;;;;;;5.25;3.13;;;;;;;;;;5075708;28;20417;-86
2022/11/25 02:02:19;;;;;;;5.90;3.30;;;;;;;;;;5074590;28;20083;-87
2022/11/25 02:04:47;;;;;;;4.97;3.10;;;;;;;;;;5059871;28;20424;-87
2022/11/25 02:07:26;;;;;;;7.30;3.30;;;;;;;;;;5073404;28;20489;-86
2022/11/25 02:09:59;;;;;;;6.68;3.63;;;;;;;;;;5084121;28;20047;-86
2022/11/25 02:12:34;;;;;;;7.88;3.53;;;;;;;;;;5095205;28;20055;-85
2022/11/25 02:15:08;;;;;;;5.28;3.65;;;;;;;;;;5060920;28;20063;-86
2022/11/25 02:17:42;;;;;;;7.25;3.85;;;;;;;;;;5064111;28;20059;-86
2022/11/25 02:20:16;;;;;;;4.40;3.17;;;;;;;;;;5101948;28;20500;-86
2022/11/25 02:22:50;;;;;;;7.18;3.58;;;;;;;;;;5074680;28;20052;-87
2022/11/25 02:25:22;;;;;;;5.95;3.40;;;;;;;;;;5087368;28;20447;-86
2022/11/25 02:27:58;;;;;;;4.07;2.78;;;;;;;;;;5070628;28;20036;-86
2022/11/25 02:30:26;;;;;;;6.55;3.63;;;;;;;;;;5071619;28;20055;-86
2022/11/25 02:32:59;;;;;;;3.72;2.83;;;;;;;;;;5089645;28;20416;-86
2022/11/25 02:35:29;;;;;;;4.85;3.42;;;;;;;;;;5072570;28;20052;-86
2022/11/25 02:38:07;;;;;;;6.47;3.20;;;;;;;;;;5104313;28;20052;-87
2022/11/25 02:40:40;;;;;;;8.82;3.40;;;;;;;;;;5086229;28;20053;-86
2022/11/25 02:43:09;;;;;;;6.13;3.47;;;;;;;;;;5088992;28;20053;-86
2022/11/25 02:45:45;;;;;;;3.85;3.08;;;;;;;;;;5067543;28;20512;-86
2022/11/25 02:48:19;;;;;;;6.32;3.47;;;;;;;;;;5057590;28;20060;-87
2022/11/25 02:50:52;;;;;;;7.50;3.63;;;;;;;;;;5086711;28;20048;-86
2022/11/25 02:53:20;;;;;;;5.45;3.70;;;;;;;;;;5062830;28;20044;-86
2022/11/25 02:55:54;;;;;;;5.90;3.40;;;;;;;;;;5069489;28;20055;-86
2022/11/25 02:58:27;;;;;;;6.90;3.15;;;;;;;;;;5096608;28;20049;-87
2022/11/25 03:01:00;;;;;;;6.90;3.47;;;;;;;;;;5072495;28;20058;-86
2022/11/25 03:03:33;;;;;;;7.35;3.53;;;;;;;;;;5067287;28;20062;-87
2022/11/25 03:06:07;;;;;;;7.03;3.40;;;;;;;;;;5054248;28;20056;-86
2022/11/25 03:08:40;;;;;;;7.55;3.40;;;;;;;;;;5063357;28;20041;-87
2022/11/25 03:11:12;;;;;;;4.70;3.42;;;;;;;;;;5051221;28;20053;-87
2022/11/25 03:13:45;;;;;;;4.40;3.00;;;;;;;;;;5080250;28;20044;-86
2022/11/25 03:16:13;;;;;;;;;;;;;;;;;;5066177;28;20512;-87
2022/11/25 03:18:45;;;;;;;3.28;2.70;;;;;;;;;;5062602;28;19920;-86
2022/11/25 03:21:15;;;;;;;6.00;3.22;;;;;;;;;;5070898;28;20048;-87
2022/11/25 03:23:48;;;;;;;4.82;2.78;;;;;;;;;;5089923;28;20040;-87
2022/11/25 03:26:24;;;;;;;4.18;3.10;;;;;;;;;;5087510;28;20067;-86
2022/11/25 03:28:57;;;;;;;6.10;3.50;;;;;;;;;;5073930;28;20511;-87
2022/11/25 03:31:30;;;;;;;5.65;3.10;;;;;;;;;;5066696;28;20059;-86
2022/11/25 03:33:58;;;;;;;4.60;3.20;;;;;;;;;;5071094;28;20404;-87
2022/11/25 03:36:26;;;;;;;;;;;;;;;;;;5088314;28;20048;-86
2022/11/25 03:38:58;;;;;;;4.43;2.75;;;;;;;;;;5072067;28;19925;-86
2022/11/25 03:41:27;;;;;;;4.03;2.83;;;;;;;;;;5091875;28;20048;-87
2022/11/25 03:43:56;;;;;;;3.75;2.58;;;;;;;;;;5070611;28;20053;-87
2022/11/25 03:46:29;;;;;;;12.15;3.17;;;;;;;;;;5054236;28;20048;-87
2022/11/25 03:49:05;;;;;;;4.50;3.33;;;;;;;;;;5092331;28;20049;-87
2022/11/25 03:51:33;;;;;;;5.32;2.75;;;;;;;;;;5069840;28;20060;-86
2022/11/25 03:54:06;;;;;;;4.57;3.28;;;;;;;;;;5079738;28;20397;-87
2022/11/25 03:57:00;;;;;;;7.13;3.13;;;;;;;;;;5090240;28;20048;-87
2022/11/25 03:59:29;;;;;;;6.65;3.17;;;;;;;;;;5066340;28;20052;-86
2022/11/25 04:02:02;;;;;;;7.50;4.10;;;;;;;;;;5065020;28;20044;-86
2022/11/25 04:04:30;;;;;;;;;;;;;;;;;;5062738;28;20052;-87
2022/11/25 04:06:58;;;;;;;9.20;3.17;;;;;;;;;;5070949;28;19925;-86
2022/11/25 04:09:31;;;;;;;20.63;3.53;;;;;;;;;;5057395;28;20040;-86
2022/11/25 04:14:55;;;;;;;14.55;2.97;;;;;;;;;;5087649;28;20048;-87
2022/11/25 04:17:23;;;;;;;;;;;;;;;;;;5074340;28;20052;-86
2022/11/25 04:19:51;;;;;;;8.75;2.88;;;;;;;;;;5057639;28;19920;-86
2022/11/25 04:22:24;;;;;;;22.30;3.90;;;;;;;;;;5060859;28;20059;-87
2022/11/25 04:24:57;;;;;;;27.02;3.80;;;;;;;;;;5071694;28;20586;-87
2022/11/25 04:27:31;;;;;;;21.27;4.22;;;;;;;;;;5060056;28;20068;-87
2022/11/25 04:29:59;;;;;;;33.55;3.53;;;;;;;;;;5071548;28;20044;-87
2022/11/25 04:32:36;;;;;;;32.13;3.55;;;;;;;;;;5072414;28;20044;-86
2022/11/25 04:35:04;;;;;;;47.30;3.55;;;;;;;;;;5098556;28;20091;-86
2022/11/25 04:37:39;;;;;;;77.50;4.15;;;;;;;;;;5098890;28;20056;-87
2022/11/25 04:40:09;;;;;;;27.63;3.22;;;;;;;;;;5071426;28;20055;-86
2022/11/25 04:42:39;;;;;;;46.58;3.83;;;;;;;;;;5068842;28;20396;-87
2022/11/25 04:45:14;;;;;;;13.32;2.70;;;;;;;;;;5081981;28;20869;-86
2022/11/25 04:47:43;;;;;;;67.25;3.85;;;;;;;;;;5064176;28;20063;-86
2022/11/25 04:50:13;;;;;;;15.98;2.47;;;;;;;;;;5068883;28;20496;-87
2022/11/25 04:53:03;;;;;;;38.42;2.75;;;;;;;;;;5080998;28;20055;-87
2022/11/25 04:55:36;;;;;;;26.92;2.38;;;;;;;;;;5059388;28;20057;-87
2022/11/25 04:59:38;;;;;;;19.67;2.33;;;;;;;;;;5072798;28;20053;-87
2022/11/25 05:01:04;;;;;;;27.95;2.30;;;;;;;;;;5096717;28;20052;-87
2022/11/25 05:03:40;;;;;;;19.77;3.03;;;;;;;;;;5065442;28;20050;-87
2022/11/25 05:06:13;;;;;;;14.35;2.70;;;;;;;;;;5104114;28;20044;-87
2022/11/25 05:08:42;;;;;;;19.20;2.80;;;;;;;;;;5079434;28;20048;-87
2022/11/25 05:11:10;;;;;;;13.82;4.03;;;;;;;;;;5069467;28;20381;-87
2022/11/25 05:13:38;;;;;;;;;;;;;;;;;;5072133;28;20044;-87
2022/11/25 05:16:12;;;;;;;14.45;2.13;;;;;;;;;;5092151;28;19924;-87
2022/11/25 05:18:40;;;;;;;11.13;2.13;;;;;;;;;;5065564;28;20075;-87
2022/11/25 05:21:08;;;;;;;;;;;;;;;;;;5075697;28;20078;-88
2022/11/25 05:23:40;;;;;;;14.15;2.25;;;;;;;;;;5089794;28;20323;-88
2022/11/25 05:26:13;;;;;;;5.07;2.00;;;;;;;;;;5075566;28;20056;-87
2022/11/25 05:28:50;;;;;;;15.80;2.25;;;;;;;;;;5067208;28;20261;-87
2022/11/25 05:31:24;;;;;;;4.30;2.20;;;;;;;;;;5070319;28;20049;-87
2022/11/25 05:34:00;;;;;;;11.20;2.40;;;;;;;;;;5071062;28;20370;-87
2022/11/25 05:36:32;;;;;;;10.23;1.98;;;;;;;;;;5068282;28;20056;-87
2022/11/25 05:39:05;;;;;;;2.45;2.05;;;;;;;;;;5070998;28;20500;-87
2022/11/25 05:42:01;;;;;;;10.55;2.08;;;;;;;;;;5095392;28;20054;-87
2022/11/25 05:44:34;;;;;;;25.50;2.40;;;;;;;;;;5074601;28;20054;-87
2022/11/25 05:47:04;;;;;;;15.65;2.53;;;;;;;;;;5072290;28;20071;-87
2022/11/25 05:49:38;;;;;;;22.30;2.53;;;;;;;;;;5076994;28;20056;-87
2022/11/25 05:52:06;;;;;;;16.50;2.58;;;;;;;;;;5055581;28;20055;-87
2022/11/25 05:54:47;;;;;;;15.77;2.17;;;;;;;;;;5070761;28;20045;-88
2022/11/25 05:57:16;;;;;;;6.22;2.05;;;;;;;;;;5064865;28;20053;-87
2022/11/25 05:59:57;;;;;;;31.83;3.00;;;;;;;;;;5093832;28;20044;-86
2022/11/25 06:02:49;;;;;;;6.82;2.45;;;;;;;;;;5088741;28;20059;-87
2022/11/25 06:05:17;;;;;;;19.17;2.88;;;;;;;;;;5061367;28;20059;-88
2022/11/25 06:07:51;;;;;;;12.95;2.40;;;;;;;;;;5069251;28;20413;-87
2022/11/25 06:10:25;;;;;;;7.80;1.98;;;;;;;;;;5081480;28;20404;-87
2022/11/25 06:12:58;;;;;;;8.70;2.42;;;;;;;;;;5069433;28;20063;-87
2022/11/25 06:15:31;;;;;;;23.63;2.38;;;;;;;;;;5077414;28;20051;-87
2022/11/25 06:18:06;;;;;;;8.70;2.30;;;;;;;;;;5070525;28;20052;-87
2022/11/25 06:20:39;;;;;;;41.13;3.17;;;;;;;;;;5089559;28;20054;-88
2022/11/25 06:23:12;;;;;;;11.75;2.20;;;;;;;;;;5074972;28;20542;-87
2022/11/25 06:25:45;;;;;;;25.25;2.75;;;;;;;;;;5070043;28;20048;-94
2022/11/25 06:28:19;;;;;;;18.65;2.55;;;;;;;;;;5070208;28;20056;-91
2022/11/25 06:30:51;;;;;;;20.55;2.65;;;;;;;;;;5070474;28;20396;-87
2022/11/25 06:33:31;;;;;;;11.05;2.20;;;;;;;;;;5072321;28;20044;-87
2022/11/25 06:36:08;;;;;;;6.47;2.00;;;;;;;;;;5078004;28;20052;-87
2022/11/25 06:38:41;;;;;;;3.45;1.95;;;;;;;;;;5084713;28;20053;-86
2022/11/25 06:41:14;;;;;;;22.00;2.85;;;;;;;;;;5068361;28;20036;-86
2022/11/25 06:43:42;;;;;;;11.05;2.35;;;;;;;;;;5093173;28;20070;-86
2022/11/25 06:46:10;;;;;;;;;;;;;;;;;;5109639;27;20523;-87
2022/11/25 06:48:37;;;;;;;;;;;;;;;;;;5071612;28;19943;-86
2022/11/25 06:51:12;;;;;;;10.68;1.98;;;;;;;;;;5072901;28;19928;-87
2022/11/25 06:53:45;;;;;;;27.20;3.03;;;;;;;;;;5071561;28;20397;-86
2022/11/25 06:56:14;;;;;;;13.30;2.65;;;;;;;;;;5062988;28;20484;-86
2022/11/25 06:58:47;;;;;;;23.38;2.47;;;;;;;;;;5071351;28;20053;-85
2022/11/25 07:01:21;;;;;;;23.80;2.75;;;;;;;;;;5092881;28;20040;-86
2022/11/25 07:03:50;;;;;;;6.70;2.30;;;;;;;;;;5068692;28;20052;-86
2022/11/25 07:06:24;;;;;;;37.20;3.03;;;;;;;;;;5067216;28;20051;-87
2022/11/25 07:08:57;;;;;;;23.58;2.95;;;;;;;;;;5068549;28;20048;-86
2022/11/25 07:11:31;;;;;;;24.77;2.55;;;;;;;;;;5099940;28;20052;-88
2022/11/25 07:14:00;;;;;;;12.32;2.33;;;;;;;;;;5071882;28;20048;-87
2022/11/25 07:16:29;;;;;;;9.13;2.47;;;;;;;;;;5077632;28;20400;-88
2022/11/25 07:18:58;;;;;;;13.30;2.58;;;;;;;;;;5060144;28;20060;-86
2022/11/25 07:21:28;;;;;;;5.55;2.67;;;;;;;;;;5082212;28;20032;-88
2022/11/25 07:24:02;;;;;;;4.97;2.83;;;;;;;;;;5087295;28;20048;-89
2022/11/25 07:26:31;;;;;;;3.58;2.55;;;;;;;;;;5078446;28;20048;-86
2022/11/25 07:29:00;;;;;;;6.70;2.75;;;;;;;;;;5068674;28;20060;-88
2022/11/25 07:31:33;;;;;;;5.00;2.75;;;;;;;;;;5089977;28;20048;-87
2022/11/25 07:34:07;;;;;;;3.00;2.38;;;;;;;;;;5068296;28;20059;-89
2022/11/25 07:36:37;;;;;;;2.90;2.17;;;;;;;;;;5084185;28;20412;-87
2022/11/25 07:39:06;;;;;;;3.80;2.50;;;;;;;;;;5085225;28;20056;-87
2022/11/25 07:41:34;;;;;;;2.67;2.03;;;;;;;;;;5090877;28;20048;-88
2022/11/25 07:44:03;;;;;;;2.80;2.17;;;;;;;;;;5092537;28;20048;-88
2022/11/25 07:46:46;;;;;;;3.05;2.13;;;;;;;;;;5102733;28;20059;-88
2022/11/25 07:49:15;;;;;;;5.20;2.70;;;;;;;;;;5075784;28;20048;-88
2022/11/25 07:51:47;;;;;;;3.38;2.40;;;;;;;;;;5072156;28;20484;-89
2022/11/25 07:54:20;;;;;;;3.33;2.50;;;;;;;;;;5083024;28;20051;-87
2022/11/25 07:56:49;;;;;;;3.33;2.58;;;;;;;;;;5076707;28;20059;-86
2022/11/25 07:59:18;;;;;;;3.08;2.22;;;;;;;;;;5108827;28;20480;-87
2022/11/25 08:01:51;;;;;;;3.97;2.78;;;;;;;;;;5075200;28;20617;-88
2022/11/25 08:04:19;;;;;;;3.92;2.53;;;;;;;;;;5074703;28;20076;-90
2022/11/25 08:06:54;;;;;;;5.78;2.58;;;;;;;;;;5052360;28;20060;-88
2022/11/25 08:09:26;;;;;;;2.97;2.38;;;;;;;;;;5073573;28;20063;-86
2022/11/25 08:11:54;;;;;;;;;;;;;;;;;;5052765;28;20059;-87
2022/11/25 08:14:22;;;;;;;;;;;;;;;;;;5058134;28;19928;-91
2022/11/25 08:16:54;;;;;;;3.05;2.45;;;;;;;;;;5058950;28;19928;-85
2022/11/25 08:19:27;;;;;;;3.30;2.22;;;;;;;;;;5052942;28;20051;-86
2022/11/25 08:21:55;;;;;;;;;;;;;;;;;;5053787;28;20055;-87
2022/11/25 08:24:22;;;;;;;;;;;;;;;;;;5057657;28;19928;-86
2022/11/25 08:26:53;;;;;;;7.30;2.97;;;;;;;;;;5087966;28;21408;-86
2022/11/25 08:29:26;;;;;;;3.42;2.15;;;;;;;;;;5086163;27;20715;-87
2022/11/25 08:31:58;;;;;;;3.88;2.63;;;;;;;;;;5070219;28;20043;-86
2022/11/25 08:34:31;;;;;;;4.85;2.38;;;;;;;;;;5053969;28;20064;-87
2022/11/25 08:37:02;;;;;;;2.85;2.42;;;;;;;;;;5049662;28;20056;-86
2022/11/25 08:39:35;;;;;;;2.92;2.50;;;;;;;;;;5074598;28;20052;-86
2022/11/25 08:42:09;;;;;;;3.42;2.55;;;;;;;;;;5060881;28;20056;-86
2022/11/25 08:44:37;;;;;;;3.10;2.15;;;;;;;;;;5070154;28;20060;-84
2022/11/25 08:47:10;;;;;;;2.63;2.17;;;;;;;;;;5058312;28;20641;-87
2022/11/25 08:49:37;;;;;;;;;;;;;;;;;;5074049;28;21556;-87
2022/11/25 08:52:11;;;;;;;5.15;2.42;;;;;;;;;;5073607;28;19928;-87
2022/11/25 08:54:43;;;;;;;6.68;2.60;;;;;;;;;;5053691;28;20044;-88
2022/11/25 08:57:11;;;;;;;;;;;;;;;;;;5070261;28;20056;-87
2022/11/25 08:59:45;;;;;;;3.28;2.63;;;;;;;;;;5052518;28;19928;-87
2022/11/25 09:02:18;;;;;;;3.17;1.88;;;;;;;;;;5055190;28;20572;-88
2022/11/25 09:04:46;;;;;;;;;;;;;;;;;;5055824;28;20067;-86
2022/11/25 09:07:13;;;;;;;;;;;;;;;;;;5072745;28;19939;-86
2022/11/25 09:09:41;;;;;;;;;;;;;;;;;;5086505;28;20311;-87
2022/11/25 09:12:13;;;;;;;3.25;2.10;;;;;;;;;;5055654;28;20396;-87
2022/11/25 09:14:48;;;;;;;4.53;2.60;;;;;;;;;;5073877;28;20420;-87
2022/11/25 09:17:21;;;;;;;3.95;2.17;;;;;;;;;;5083062;28;20060;-85
2022/11/25 09:19:54;;;;;;;2.97;2.22;;;;;;;;;;5049894;28;20071;-87
2022/11/25 09:22:22;;;;;;;3.33;2.50;;;;;;;;;;5092946;28;20044;-86
2022/11/25 09:24:54;;;;;;;3.45;2.42;;;;;;;;;;5056054;28;20060;-87
2022/11/25 09:27:22;;;;;;;;;;;;;;;;;;5064071;28;20409;-86
2022/11/25 09:29:50;;;;;;;;;;;;;;;;;;5069997;28;19935;-86
2022/11/25 09:32:17;;;;;;;;;;;;;;;;;;5055151;28;19928;-86
2022/11/25 09:34:45;;;;;;;;;;;;;;;;;;5073147;28;19928;-87
2022/11/25 09:37:14;;;;;;;2.95;2.15;;;;;;;;;;5076280;28;21228;-86
2022/11/25 09:39:42;;;;;;;2.60;2.40;;;;;;;;;;5048330;28;20048;-87
2022/11/25 09:48:00;;;;;;;2.20;2.00;;;;;;;;;;5038333;28;20443;-86
2022/11/25 09:50:39;;;;;;;3.20;2.42;;;;;;;;;;5064338;28;20052;-85
2022/11/25 09:53:21;;;;;;;3.38;2.50;;;;;;;;;;5053406;28;20056;-86
2022/11/25 09:55:50;;;;;;;3.40;2.58;;;;;;;;;;5065212;28;20397;-86
2022/11/25 09:58:30;;;;;;;3.20;2.50;;;;;;;;;;5044202;28;20051;-86
2022/11/25 10:01:04;;;;;;;5.65;2.58;;;;;;;;;;5048863;28;20063;-86
2022/11/25 10:03:34;;;;;;;4.75;2.65;;;;;;;;;;5074172;28;20063;-87
2022/11/25 10:06:08;;;;;;;3.40;2.60;;;;;;;;;;5055976;28;20059;-87
2022/11/25 10:08:43;;;;;;;5.53;2.90;;;;;;;;;;5050540;28;20060;-86
2022/11/25 10:11:16;;;;;;;3.40;2.40;;;;;;;;;;5055193;28;20764;-86
2022/11/25 10:13:48;;;;;;;4.60;2.92;;;;;;;;;;5084078;28;20067;-86
2022/11/25 10:16:27;;;;;;;6.47;3.00;;;;;;;;;;5049307;28;20056;-86
2022/11/25 10:19:01;;;;;;;6.43;2.40;;;;;;;;;;5065966;28;20052;-86
2022/11/25 10:21:29;;;;;;;4.95;3.22;;;;;;;;;;5061784;28;20084;-87
2022/11/25 10:24:04;;;;;;;5.65;2.80;;;;;;;;;;5048113;28;21214;-86
2022/11/25 10:26:41;;;;;;;4.63;3.28;;;;;;;;;;5070942;28;20063;-85
2022/11/25 10:29:24;;;;;;;4.30;2.70;;;;;;;;;;5052688;28;20056;-87
2022/11/25 10:31:56;;;;;;;5.07;2.88;;;;;;;;;;5056114;28;20728;-87
2022/11/25 10:34:29;;;;;;;3.67;2.65;;;;;;;;;;5056283;28;20769;-86
2022/11/25 10:37:05;;;;;;;3.17;2.75;;;;;;;;;;5067890;28;20094;-86
2022/11/25 10:39:39;;;;;;;5.80;2.85;;;;;;;;;;5051364;28;20060;-87
2022/11/25 10:42:13;;;;;;;3.67;2.80;;;;;;;;;;5063220;28;20052;-86
2022/11/25 10:44:46;;;;;;;7.32;3.90;;;;;;;;;;5052845;28;20430;-86
2022/11/25 10:47:25;;;;;;;7.67;3.90;;;;;;;;;;5069455;28;20485;-86
2022/11/25 10:50:00;;;;;;;9.27;3.97;;;;;;;;;;5050665;28;20435;-85
2022/11/25 10:52:35;;;;;;;6.00;3.55;;;;;;;;;;5053194;28;20426;-86
2022/11/25 10:55:10;;;;;;;9.45;4.25;;;;;;;;;;5053950;28;20414;-86
2022/11/25 10:57:43;;;;;;;7.85;4.00;;;;;;;;;;5054451;28;20415;-86
2022/11/25 11:00:27;;;;;;;8.55;4.18;;;;;;;;;;5057417;28;20874;-87
2022/11/25 11:02:55;;;;;;;8.70;4.15;;;;;;;;;;5087808;28;20421;-87
2022/11/25 11:05:29;;;;;;;10.87;4.67;;;;;;;;;;5088321;28;20953;-87
2022/11/25 11:08:08;;;;;;;13.30;5.30;;;;;;;;;;5051148;28;20433;-88
2022/11/25 11:10:38;;;;;;;11.25;5.00;;;;;;;;;;5085852;28;20436;-87
2022/11/25 11:13:19;;;;;;;12.70;5.20;;;;;;;;;;5061324;28;21100;-87
2022/11/25 11:15:48;;;;;;;10.43;5.05;;;;;;;;;;5054995;28;20441;-87
2022/11/25 11:18:23;;;;;;;10.32;5.00;;;;;;;;;;5052576;28;20464;-87
2022/11/25 11:20:52;;;;;;;11.00;5.10;;;;;;;;;;5070623;28;20427;-87
2022/11/25 11:23:25;;;;;;;11.88;5.10;;;;;;;;;;5051825;28;21358;-88
2022/11/25 11:26:00;;;;;;;11.25;5.72;;;;;;;;;;5053462;28;21033;-86
2022/11/25 11:28:38;;;;;;;11.35;5.25;;;;;;;;;;5056622;28;20763;-88
2022/11/25 11:31:17;;;;;;;10.18;5.18;;;;;;;;;;5055215;28;20426;-87
2022/11/25 11:33:54;;;;;;;11.02;5.35;;;;;;;;;;5055972;28;20418;-87
2022/11/25 11:36:34;;;;;;;14.88;6.05;;;;;;;;;;5053198;28;20942;-87
2022/11/25 11:39:11;;;;;;;13.37;5.63;;;;;;;;;;5094309;28;20464;-87
2022/11/25 11:41:48;;;;;;;14.55;5.85;;;;;;;;;;5052103;28;20422;-88
2022/11/25 11:44:22;;;;;;;14.35;6.25;;;;;;;;;;5055195;28;20410;-86
2022/11/25 11:46:58;;;;;;;11.75;5.60;;;;;;;;;;5089118;28;21114;-87
2022/11/25 11:49:40;;;;;;;13.20;5.88;;;;;;;;;;5089295;28;20425;-87
2022/11/25 11:52:17;;;;;;;13.95;6.32;;;;;;;;;;5088048;28;20429;-87
2022/11/25 11:54:52;;;;;;;15.43;6.47;;;;;;;;;;5067626;28;20418;-87
2022/11/25 11:57:28;;;;;;;13.95;6.63;;;;;;;;;;5053419;28;20414;-87
2022/11/25 11:59:58;;;;;;;12.70;6.70;;;;;;;;;;5065401;28;20416;-87
2022/11/25 12:02:31;;;;;;;13.18;6.60;;;;;;;;;;5082641;28;20437;-87
2022/11/25 12:05:11;;;;;;;15.65;6.93;;;;;;;;;;5072868;28;20425;-87
2022/11/25 12:07:47;;;;;;;13.68;7.00;;;;;;;;;;5052837;28;20426;-87
2022/11/25 12:10:24;;;;;;;15.43;6.82;;;;;;;;;;5053802;28;20747;-87
2022/11/25 12:13:02;;;;;;;14.97;6.20;;;;;;;;;;5064388;28;20547;-87
2022/11/25 12:15:39;;;;;;;12.40;6.33;;;;;;;;;;5051853;28;20437;-88
2022/11/25 12:18:11;;;;;;;14.85;6.50;;;;;;;;;;5084651;28;20437;-88
2022/11/25 12:20:44;;;;;;;16.17;6.95;;;;;;;;;;5047521;28;20425;-87
2022/11/25 12:23:21;;;;;;;17.38;6.88;;;;;;;;;;5050946;28;20421;-88
2022/11/25 12:25:51;;;;;;;19.60;6.95;;;;;;;;;;5054086;28;20422;-88
2022/11/25 12:28:28;;;;;;;14.32;6.70;;;;;;;;;;5061593;28;20425;-87
2022/11/25 12:31:05;;;;;;;14.98;6.07;;;;;;;;;;5069807;28;20438;-87
2022/11/25 12:33:40;;;;;;;16.10;6.32;;;;;;;;;;5057509;28;20449;-87
2022/11/25 12:36:16;;;;;;;14.40;6.20;;;;;;;;;;5057982;28;20873;-87
2022/11/25 12:38:53;;;;;;;16.70;6.05;;;;;;;;;;5054916;28;20440;-87
2022/11/25 12:41:29;;;;;;;14.38;6.30;;;;;;;;;;5073555;28;20429;-87
2022/11/25 12:44:07;;;;;;;16.50;6.30;;;;;;;;;;5088326;28;20429;-87
2022/11/25 12:46:37;;;;;;;17.60;6.40;;;;;;;;;;5088798;28;20515;-88
2022/11/25 12:49:13;;;;;;;14.15;6.35;;;;;;;;;;5062031;28;20431;-88
2022/11/25 12:51:47;;;;;;;17.67;7.10;;;;;;;;;;5053516;28;20422;-87
2022/11/25 12:54:36;;;;;;;20.63;7.22;;;;;;;;;;5056868;28;20425;-87
2022/11/25 12:57:27;;;;;;;15.32;7.05;;;;;;;;;;5072115;28;20916;-87
2022/11/25 13:00:05;;;;;;;16.08;6.65;;;;;;;;;;5032679;28;20413;-87
2022/11/25 13:02:45;;;;;;;18.20;6.63;;;;;;;;;;5054739;28;20422;-87
2022/11/25 13:05:39;;;;;;;18.42;7.10;;;;;;;;;;5092130;28;20510;-89
2022/11/25 13:08:16;;;;;;;16.77;7.00;;;;;;;;;;5055168;28;20433;-86
2022/11/25 13:10:51;;;;;;;16.70;7.10;;;;;;;;;;5055025;28;21138;-87
2022/11/25 13:13:30;;;;;;;19.13;7.28;;;;;;;;;;5053696;28;20441;-87
2022/11/25 13:16:05;;;;;;;21.55;7.55;;;;;;;;;;5056965;28;20433;-88
2022/11/25 13:18:34;;;;;;;16.90;7.67;;;;;;;;;;5059700;28;20923;-88
2022/11/25 13:21:06;;;;;;;16.52;7.45;;;;;;;;;;5051293;28;20902;-88
2022/11/25 13:23:46;;;;;;;17.08;7.63;;;;;;;;;;5057919;28;20418;-87
2022/11/25 13:26:34;;;;;;;21.52;7.07;;;;;;;;;;5054902;28;20410;-88
2022/11/25 13:29:26;;;;;;;19.77;7.67;;;;;;;;;;5055815;28;20450;-87
2022/11/25 13:31:56;;;;;;;22.77;7.83;;;;;;;;;;5036691;28;20441;-88
2022/11/25 13:34:30;;;;;;;15.35;6.97;;;;;;;;;;5053790;28;20432;-87
2022/11/25 13:36:58;;;;;;;16.25;7.45;;;;;;;;;;5064298;28;20425;-87
2022/11/25 13:39:32;;;;;;;19.83;8.13;;;;;;;;;;5073169;28;20432;-88
2022/11/25 13:42:13;;;;;;;17.77;7.90;;;;;;;;;;5048004;28;21231;-88
2022/11/25 13:44:49;;;;;;;18.77;8.80;;;;;;;;;;5065328;28;20390;-87
2022/11/25 13:47:28;;;;;;;19.92;8.80;;;;;;;;;;5090613;28;20751;-87
2022/11/25 13:49:58;;;;;;;20.38;9.27;;;;;;;;;;5092790;28;21091;-88
2022/11/25 13:52:30;;;;;;;24.55;9.07;;;;;;;;;;5054181;28;21685;-88
2022/11/25 13:55:06;;;;;;;23.73;10.43;;;;;;;;;;5054956;28;20433;-88
2022/11/25 13:57:40;;;;;;;19.15;9.30;;;;;;;;;;5084758;28;20433;-88
2022/11/25 14:00:28;;;;;;;18.60;8.82;;;;;;;;;;5050364;28;20429;-88
2022/11/25 14:03:16;;;;;;;22.73;9.30;;;;;;;;;;5062961;28;21131;-87
2022/11/25 14:05:58;;;;;;;18.40;9.13;;;;;;;;;;5049722;28;20927;-88
2022/11/25 14:08:30;;;;;;;17.83;9.23;;;;;;;;;;5055711;28;20414;-88
2022/11/25 14:11:15;;;;;;;16.70;8.15;;;;;;;;;;5054349;28;20425;-88
2022/11/25 14:13:57;;;;;;;20.02;8.88;;;;;;;;;;5053708;28;20869;-87
2022/11/25 14:16:36;;;;;;;19.80;9.27;;;;;;;;;;5059845;28;20875;-88
2022/11/25 14:19:16;;;;;;;24.92;9.30;;;;;;;;;;5081131;28;20782;-88
2022/11/25 14:21:52;;;;;;;20.27;9.65;;;;;;;;;;5067293;28;20433;-87
2022/11/25 14:24:29;;;;;;;21.02;9.52;;;;;;;;;;5049033;28;20418;-87
2022/11/25 14:27:03;;;;;;;19.63;9.27;;;;;;;;;;5046584;28;20414;-87
2022/11/25 14:29:37;;;;;;;20.10;9.30;;;;;;;;;;5068014;28;20418;-87
2022/11/25 14:32:13;;;;;;;19.80;8.98;;;;;;;;;;5085012;28;20429;-87
2022/11/25 14:34:42;;;;;;;18.33;8.60;;;;;;;;;;5053222;28;21034;-87
2022/11/25 14:37:21;;;;;;;19.93;8.43;;;;;;;;;;5047166;28;20433;-87
2022/11/25 14:39:55;;;;;;;20.20;8.85;;;;;;;;;;5053581;28;20422;-88
2022/11/25 14:42:32;;;;;;;20.27;8.73;;;;;;;;;;5065502;28;20457;-87
2022/11/25 14:45:18;;;;;;;20.40;8.60;;;;;;;;;;5060962;28;20413;-87
2022/11/25 14:47:51;;;;;;;16.38;8.35;;;;;;;;;;5062560;28;20755;-87
2022/11/25 14:50:19;;;;;;;18.97;8.90;;;;;;;;;;5051192;28;20433;-87
2022/11/25 14:52:49;;;;;;;22.75;9.50;;;;;;;;;;5046253;28;21276;-87
2022/11/25 14:55:24;;;;;;;20.17;9.02;;;;;;;;;;5045970;28;20438;-87
2022/11/25 14:57:52;;;;;;;20.17;8.23;;;;;;;;;;5054583;28;21581;-87
2022/11/25 15:00:25;;;;;;;20.05;8.40;;;;;;;;;;5084220;28;20428;-87
2022/11/25 15:02:59;;;;;;;21.48;9.45;;;;;;;;;;5068760;28;21068;-88
2022/11/25 15:05:32;;;;;;;19.05;8.68;;;;;;;;;;5089297;28;20402;-87
2022/11/25 15:08:03;;;;;;;23.98;10.68;;;;;;;;;;5053189;28;20414;-90
2022/11/25 15:10:32;;;;;;;26.02;14.18;;;;;;;;;;5057122;28;20881;-86
2022/11/25 15:13:00;;;;;;;28.15;10.93;;;;;;;;;;5049789;28;20761;-90
2022/11/25 15:15:28;;;;;;;20.92;9.80;;;;;;;;;;5062340;28;20429;-88
2022/11/25 15:17:56;;;;;;;26.58;9.75;;;;;;;;;;5054498;28;21363;-88
2022/11/25 15:20:33;;;;;;;21.80;9.35;;;;;;;;;;5087341;28;20429;-86
2022/11/25 15:23:02;;;;;;;21.48;9.35;;;;;;;;;;5083052;28;20452;-88
2022/11/25 15:25:30;;;;;;;20.00;9.97;;;;;;;;;;5045622;28;20437;-87
2022/11/25 15:27:58;;;;;;;23.73;9.60;;;;;;;;;;5083658;28;20430;-85
2022/11/25 15:30:31;;;;;;;20.48;9.38;;;;;;;;;;5045952;28;20417;-86
2022/11/25 15:32:59;;;;;;;24.30;9.88;;;;;;;;;;5055125;28;20418;-86
2022/11/25 15:35:27;;;;;;;24.42;9.52;;;;;;;;;;5055098;28;20443;-85